sensor_id;sensor_type;location;lat;lon;timestamp;P1;durP1;ratioP1;P2;durP2;ratioP2
39750;SDS011;37579;51.074;17.004;2023-11-21T00:00:19;4.00;;;2.00;;
39750;SDS011;37579;51.074;17.004;2023-11-21T00:02:45;4.20;;;1.45;;
39750;SDS011;37579;51.074;17.004;2023-11-21T00:05:11;3.33;;;1.40;;
39750;SDS011;37579;51.074;17.004;2023-11-21T00:07:42;4.65;;;1.80;;
39750;SDS011;37579;51.074;17.004;2023-11-21T00:10:08;3.83;;;1.73;;
39750;SDS011;37579;51.074;17.004;2023-11-21T00:12:35;2.42;;;1.40;;
39750;SDS011;37579;51.074;17.004;2023-11-21T00:15:03;2.55;;;1.30;;
39750;SDS011;37579;51.074;17.004;2023-11-21T00:17:36;2.90;;;1.23;;
39750;SDS011;37579;51.074;17.004;2023-11-21T00:20:03;4.03;;;1.40;;
39750;SDS011;37579;51.074;17.004;2023-11-21T00:22:32;3.83;;;1.85;;
39750;SDS011;37579;51.074;17.004;2023-11-21T00:25:01;3.03;;;1.45;;
39750;SDS011;37579;51.074;17.004;2023-11-21T00:27:28;2.50;;;1.30;;
39750;SDS011;37579;51.074;17.004;2023-11-21T00:29:55;2.58;;;1.50;;
39750;SDS011;37579;51.074;17.004;2023-11-21T00:32:20;5.03;;;1.58;;
39750;SDS011;37579;51.074;17.004;2023-11-21T00:34:46;4.35;;;1.50;;
39750;SDS011;37579;51.074;17.004;2023-11-21T00:37:12;3.63;;;1.48;;
39750;SDS011;37579;51.074;17.004;2023-11-21T00:39:38;4.18;;;1.88;;
39750;SDS011;37579;51.074;17.004;2023-11-21T00:42:05;2.75;;;1.45;;
39750;SDS011;37579;51.074;17.004;2023-11-21T00:44:31;1.77;;;0.90;;
39750;SDS011;37579;51.074;17.004;2023-11-21T00:46:59;3.33;;;1.33;;
39750;SDS011;37579;51.074;17.004;2023-11-21T00:49:25;2.25;;;1.08;;
39750;SDS011;37579;51.074;17.004;2023-11-21T00:51:51;2.40;;;1.10;;
39750;SDS011;37579;51.074;17.004;2023-11-21T00:54:16;2.05;;;1.25;;
39750;SDS011;37579;51.074;17.004;2023-11-21T00:56:43;2.05;;;1.17;;
39750;SDS011;37579;51.074;17.004;2023-11-21T00:59:09;2.20;;;1.00;;
39750;SDS011;37579;51.074;17.004;2023-11-21T01:01:35;4.50;;;1.48;;
39750;SDS011;37579;51.074;17.004;2023-11-21T01:04:04;3.28;;;1.35;;
39750;SDS011;37579;51.074;17.004;2023-11-21T01:06:33;3.67;;;1.10;;
39750;SDS011;37579;51.074;17.004;2023-11-21T01:08:58;4.07;;;1.25;;
39750;SDS011;37579;51.074;17.004;2023-11-21T01:11:24;2.00;;;1.10;;
39750;SDS011;37579;51.074;17.004;2023-11-21T01:13:50;2.90;;;1.05;;
39750;SDS011;37579;51.074;17.004;2023-11-21T01:16:16;2.45;;;1.23;;
39750;SDS011;37579;51.074;17.004;2023-11-21T01:18:42;2.28;;;1.17;;
39750;SDS011;37579;51.074;17.004;2023-11-21T01:21:07;4.07;;;1.30;;
39750;SDS011;37579;51.074;17.004;2023-11-21T01:23:34;3.00;;;1.30;;
39750;SDS011;37579;51.074;17.004;2023-11-21T01:26:00;3.00;;;1.17;;
39750;SDS011;37579;51.074;17.004;2023-11-21T01:28:25;3.03;;;1.23;;
39750;SDS011;37579;51.074;17.004;2023-11-21T01:30:51;3.67;;;1.90;;
39750;SDS011;37579;51.074;17.004;2023-11-21T01:33:18;2.10;;;1.02;;
39750;SDS011;37579;51.074;17.004;2023-11-21T01:35:45;2.85;;;1.10;;
39750;SDS011;37579;51.074;17.004;2023-11-21T01:38:11;4.13;;;1.20;;
39750;SDS011;37579;51.074;17.004;2023-11-21T01:40:37;1.83;;;0.88;;
39750;SDS011;37579;51.074;17.004;2023-11-21T01:43:03;3.40;;;1.35;;
39750;SDS011;37579;51.074;17.004;2023-11-21T01:45:29;2.13;;;1.20;;
39750;SDS011;37579;51.074;17.004;2023-11-21T01:47:59;2.75;;;1.25;;
39750;SDS011;37579;51.074;17.004;2023-11-21T01:50:26;2.97;;;0.90;;
39750;SDS011;37579;51.074;17.004;2023-11-21T01:52:52;3.53;;;1.02;;
39750;SDS011;37579;51.074;17.004;2023-11-21T01:55:19;2.53;;;1.20;;
39750;SDS011;37579;51.074;17.004;2023-11-21T01:57:45;2.35;;;0.85;;
39750;SDS011;37579;51.074;17.004;2023-11-21T02:00:12;2.05;;;0.90;;
39750;SDS011;37579;51.074;17.004;2023-11-21T02:02:50;2.35;;;1.25;;
39750;SDS011;37579;51.074;17.004;2023-11-21T02:05:17;2.88;;;1.17;;
39750;SDS011;37579;51.074;17.004;2023-11-21T02:07:44;3.03;;;1.10;;
39750;SDS011;37579;51.074;17.004;2023-11-21T02:10:13;2.30;;;0.80;;
39750;SDS011;37579;51.074;17.004;2023-11-21T02:12:43;1.63;;;1.05;;
39750;SDS011;37579;51.074;17.004;2023-11-21T02:15:12;1.83;;;0.73;;
39750;SDS011;37579;51.074;17.004;2023-11-21T02:17:45;2.08;;;1.05;;
39750;SDS011;37579;51.074;17.004;2023-11-21T02:20:12;2.72;;;1.25;;
39750;SDS011;37579;51.074;17.004;2023-11-21T02:22:43;1.65;;;1.00;;
39750;SDS011;37579;51.074;17.004;2023-11-21T02:25:14;1.90;;;0.93;;
39750;SDS011;37579;51.074;17.004;2023-11-21T02:27:40;1.80;;;0.85;;
39750;SDS011;37579;51.074;17.004;2023-11-21T02:30:06;1.77;;;1.00;;
39750;SDS011;37579;51.074;17.004;2023-11-21T02:32:37;1.52;;;0.90;;
39750;SDS011;37579;51.074;17.004;2023-11-21T02:35:05;1.98;;;1.23;;
39750;SDS011;37579;51.074;17.004;2023-11-21T02:37:33;1.23;;;0.82;;
39750;SDS011;37579;51.074;17.004;2023-11-21T02:39:59;2.47;;;1.05;;
39750;SDS011;37579;51.074;17.004;2023-11-21T02:42:25;1.95;;;0.63;;
39750;SDS011;37579;51.074;17.004;2023-11-21T02:44:50;1.73;;;0.90;;
39750;SDS011;37579;51.074;17.004;2023-11-21T02:47:16;3.22;;;1.20;;
39750;SDS011;37579;51.074;17.004;2023-11-21T02:49:42;2.15;;;0.95;;
39750;SDS011;37579;51.074;17.004;2023-11-21T02:52:09;1.67;;;0.70;;
39750;SDS011;37579;51.074;17.004;2023-11-21T02:54:34;2.55;;;0.82;;
39750;SDS011;37579;51.074;17.004;2023-11-21T02:57:01;1.80;;;0.98;;
39750;SDS011;37579;51.074;17.004;2023-11-21T02:59:29;1.70;;;0.80;;
39750;SDS011;37579;51.074;17.004;2023-11-21T03:01:54;3.50;;;1.00;;
39750;SDS011;37579;51.074;17.004;2023-11-21T03:04:22;1.00;;;0.70;;
39750;SDS011;37579;51.074;17.004;2023-11-21T03:06:48;2.20;;;0.90;;
39750;SDS011;37579;51.074;17.004;2023-11-21T03:09:14;1.67;;;0.90;;
39750;SDS011;37579;51.074;17.004;2023-11-21T03:11:41;2.25;;;0.90;;
39750;SDS011;37579;51.074;17.004;2023-11-21T03:14:07;1.63;;;0.65;;
39750;SDS011;37579;51.074;17.004;2023-11-21T03:16:33;1.58;;;0.70;;
39750;SDS011;37579;51.074;17.004;2023-11-21T03:18:59;1.83;;;0.70;;
39750;SDS011;37579;51.074;17.004;2023-11-21T03:21:26;1.38;;;0.73;;
39750;SDS011;37579;51.074;17.004;2023-11-21T03:23:52;1.63;;;0.80;;
39750;SDS011;37579;51.074;17.004;2023-11-21T03:26:18;1.75;;;0.95;;
39750;SDS011;37579;51.074;17.004;2023-11-21T03:28:44;1.10;;;0.52;;
39750;SDS011;37579;51.074;17.004;2023-11-21T03:31:11;1.20;;;0.60;;
39750;SDS011;37579;51.074;17.004;2023-11-21T03:33:37;2.50;;;0.98;;
39750;SDS011;37579;51.074;17.004;2023-11-21T03:36:03;1.15;;;0.70;;
39750;SDS011;37579;51.074;17.004;2023-11-21T03:38:29;1.42;;;0.50;;
39750;SDS011;37579;51.074;17.004;2023-11-21T03:40:55;2.03;;;0.70;;
39750;SDS011;37579;51.074;17.004;2023-11-21T03:43:21;1.88;;;0.70;;
39750;SDS011;37579;51.074;17.004;2023-11-21T03:45:47;1.02;;;0.60;;
39750;SDS011;37579;51.074;17.004;2023-11-21T03:48:13;1.48;;;0.77;;
39750;SDS011;37579;51.074;17.004;2023-11-21T03:50:39;1.00;;;0.55;;
39750;SDS011;37579;51.074;17.004;2023-11-21T03:53:05;1.30;;;0.60;;
39750;SDS011;37579;51.074;17.004;2023-11-21T03:55:31;1.35;;;0.80;;
39750;SDS011;37579;51.074;17.004;2023-11-21T03:57:57;2.42;;;0.70;;
39750;SDS011;37579;51.074;17.004;2023-11-21T04:00:24;1.35;;;0.65;;
39750;SDS011;37579;51.074;17.004;2023-11-21T04:02:52;1.10;;;0.60;;
39750;SDS011;37579;51.074;17.004;2023-11-21T04:05:19;0.95;;;0.50;;
39750;SDS011;37579;51.074;17.004;2023-11-21T04:07:48;1.48;;;0.63;;
39750;SDS011;37579;51.074;17.004;2023-11-21T04:10:15;2.75;;;0.80;;
39750;SDS011;37579;51.074;17.004;2023-11-21T04:12:40;1.08;;;0.52;;
39750;SDS011;37579;51.074;17.004;2023-11-21T04:15:06;1.95;;;0.73;;
39750;SDS011;37579;51.074;17.004;2023-11-21T04:17:34;1.52;;;0.63;;
39750;SDS011;37579;51.074;17.004;2023-11-21T04:20:00;1.70;;;1.13;;
39750;SDS011;37579;51.074;17.004;2023-11-21T04:22:26;1.67;;;0.65;;
39750;SDS011;37579;51.074;17.004;2023-11-21T04:24:51;2.05;;;0.65;;
39750;SDS011;37579;51.074;17.004;2023-11-21T04:27:17;0.77;;;0.50;;
39750;SDS011;37579;51.074;17.004;2023-11-21T04:29:43;1.15;;;0.40;;
39750;SDS011;37579;51.074;17.004;2023-11-21T04:32:09;1.83;;;0.68;;
39750;SDS011;37579;51.074;17.004;2023-11-21T04:34:35;1.63;;;0.70;;
39750;SDS011;37579;51.074;17.004;2023-11-21T04:37:01;2.42;;;1.15;;
39750;SDS011;37579;51.074;17.004;2023-11-21T04:39:28;1.63;;;0.60;;
39750;SDS011;37579;51.074;17.004;2023-11-21T04:41:54;1.33;;;0.52;;
39750;SDS011;37579;51.074;17.004;2023-11-21T04:44:19;1.73;;;0.82;;
39750;SDS011;37579;51.074;17.004;2023-11-21T04:46:45;1.63;;;0.60;;
39750;SDS011;37579;51.074;17.004;2023-11-21T04:49:11;2.35;;;0.50;;
39750;SDS011;37579;51.074;17.004;2023-11-21T04:51:36;1.20;;;0.60;;
39750;SDS011;37579;51.074;17.004;2023-11-21T04:54:02;1.30;;;0.60;;
39750;SDS011;37579;51.074;17.004;2023-11-21T04:56:28;1.23;;;0.57;;
39750;SDS011;37579;51.074;17.004;2023-11-21T04:58:54;1.70;;;0.93;;
39750;SDS011;37579;51.074;17.004;2023-11-21T05:01:20;1.67;;;0.68;;
39750;SDS011;37579;51.074;17.004;2023-11-21T05:03:46;1.15;;;0.70;;
39750;SDS011;37579;51.074;17.004;2023-11-21T05:06:12;1.38;;;0.82;;
39750;SDS011;37579;51.074;17.004;2023-11-21T05:08:39;0.93;;;0.50;;
39750;SDS011;37579;51.074;17.004;2023-11-21T05:11:05;1.17;;;0.57;;
39750;SDS011;37579;51.074;17.004;2023-11-21T05:13:33;1.02;;;0.63;;
39750;SDS011;37579;51.074;17.004;2023-11-21T05:15:59;1.17;;;0.60;;
39750;SDS011;37579;51.074;17.004;2023-11-21T05:18:25;1.52;;;0.60;;
39750;SDS011;37579;51.074;17.004;2023-11-21T05:20:55;2.53;;;0.55;;
39750;SDS011;37579;51.074;17.004;2023-11-21T05:23:21;0.90;;;0.50;;
39750;SDS011;37579;51.074;17.004;2023-11-21T05:25:47;0.90;;;0.40;;
39750;SDS011;37579;51.074;17.004;2023-11-21T05:28:12;1.10;;;0.70;;
39750;SDS011;37579;51.074;17.004;2023-11-21T05:30:38;1.10;;;0.50;;
39750;SDS011;37579;51.074;17.004;2023-11-21T05:33:05;1.15;;;0.60;;
39750;SDS011;37579;51.074;17.004;2023-11-21T05:35:30;1.27;;;0.47;;
39750;SDS011;37579;51.074;17.004;2023-11-21T05:37:56;1.35;;;0.50;;
39750;SDS011;37579;51.074;17.004;2023-11-21T05:40:22;1.77;;;0.63;;
39750;SDS011;37579;51.074;17.004;2023-11-21T05:42:49;1.77;;;0.50;;
39750;SDS011;37579;51.074;17.004;2023-11-21T05:45:16;3.25;;;0.60;;
39750;SDS011;37579;51.074;17.004;2023-11-21T05:47:44;1.80;;;0.70;;
39750;SDS011;37579;51.074;17.004;2023-11-21T05:50:14;1.45;;;0.55;;
39750;SDS011;37579;51.074;17.004;2023-11-21T05:52:41;2.45;;;0.55;;
39750;SDS011;37579;51.074;17.004;2023-11-21T05:55:08;2.03;;;0.60;;
39750;SDS011;37579;51.074;17.004;2023-11-21T05:57:34;2.72;;;0.50;;
39750;SDS011;37579;51.074;17.004;2023-11-21T06:00:04;1.15;;;0.65;;
39750;SDS011;37579;51.074;17.004;2023-11-21T06:02:45;1.23;;;0.50;;
39750;SDS011;37579;51.074;17.004;2023-11-21T06:05:12;1.55;;;0.60;;
39750;SDS011;37579;51.074;17.004;2023-11-21T06:07:38;1.58;;;0.70;;
39750;SDS011;37579;51.074;17.004;2023-11-21T06:10:05;1.65;;;0.47;;
39750;SDS011;37579;51.074;17.004;2023-11-21T06:12:34;1.65;;;0.60;;
39750;SDS011;37579;51.074;17.004;2023-11-21T06:15:04;1.52;;;0.40;;
39750;SDS011;37579;51.074;17.004;2023-11-21T06:17:33;2.30;;;0.63;;
39750;SDS011;37579;51.074;17.004;2023-11-21T06:20:05;1.33;;;0.55;;
39750;SDS011;37579;51.074;17.004;2023-11-21T06:22:42;0.93;;;0.60;;
39750;SDS011;37579;51.074;17.004;2023-11-21T06:25:09;0.68;;;0.43;;
39750;SDS011;37579;51.074;17.004;2023-11-21T06:27:39;0.70;;;0.40;;
39750;SDS011;37579;51.074;17.004;2023-11-21T06:30:10;1.60;;;0.52;;
39750;SDS011;37579;51.074;17.004;2023-11-21T06:32:37;2.00;;;0.60;;
39750;SDS011;37579;51.074;17.004;2023-11-21T06:35:05;2.63;;;0.55;;
39750;SDS011;37579;51.074;17.004;2023-11-21T06:37:31;1.90;;;0.40;;
39750;SDS011;37579;51.074;17.004;2023-11-21T06:39:58;2.17;;;1.10;;
39750;SDS011;37579;51.074;17.004;2023-11-21T06:42:24;1.27;;;0.50;;
39750;SDS011;37579;51.074;17.004;2023-11-21T06:44:50;1.30;;;0.70;;
39750;SDS011;37579;51.074;17.004;2023-11-21T06:47:22;0.90;;;0.40;;
39750;SDS011;37579;51.074;17.004;2023-11-21T06:49:54;1.65;;;0.47;;
39750;SDS011;37579;51.074;17.004;2023-11-21T06:52:20;0.60;;;0.35;;
39750;SDS011;37579;51.074;17.004;2023-11-21T06:54:46;3.85;;;0.80;;
39750;SDS011;37579;51.074;17.004;2023-11-21T06:57:14;0.55;;;0.38;;
39750;SDS011;37579;51.074;17.004;2023-11-21T06:59:40;1.25;;;0.50;;
39750;SDS011;37579;51.074;17.004;2023-11-21T07:02:06;0.70;;;0.30;;
39750;SDS011;37579;51.074;17.004;2023-11-21T07:04:33;0.95;;;0.50;;
39750;SDS011;37579;51.074;17.004;2023-11-21T07:06:59;1.83;;;0.60;;
39750;SDS011;37579;51.074;17.004;2023-11-21T07:09:25;4.00;;;0.60;;
39750;SDS011;37579;51.074;17.004;2023-11-21T07:11:51;0.75;;;0.60;;
39750;SDS011;37579;51.074;17.004;2023-11-21T07:14:17;1.40;;;0.45;;
39750;SDS011;37579;51.074;17.004;2023-11-21T07:16:44;3.88;;;0.63;;
39750;SDS011;37579;51.074;17.004;2023-11-21T07:19:11;1.42;;;0.50;;
39750;SDS011;37579;51.074;17.004;2023-11-21T07:21:37;1.70;;;0.50;;
39750;SDS011;37579;51.074;17.004;2023-11-21T07:24:07;2.78;;;0.52;;
39750;SDS011;37579;51.074;17.004;2023-11-21T07:26:33;1.75;;;0.55;;
39750;SDS011;37579;51.074;17.004;2023-11-21T07:29:03;1.20;;;0.60;;
39750;SDS011;37579;51.074;17.004;2023-11-21T07:31:29;1.23;;;0.55;;
39750;SDS011;37579;51.074;17.004;2023-11-21T07:33:55;1.23;;;0.50;;
39750;SDS011;37579;51.074;17.004;2023-11-21T07:36:24;3.70;;;0.73;;
39750;SDS011;37579;51.074;17.004;2023-11-21T07:38:49;2.97;;;0.63;;
39750;SDS011;37579;51.074;17.004;2023-11-21T07:41:17;0.82;;;0.40;;
39750;SDS011;37579;51.074;17.004;2023-11-21T07:43:46;1.70;;;0.60;;
39750;SDS011;37579;51.074;17.004;2023-11-21T07:46:12;1.70;;;0.57;;
39750;SDS011;37579;51.074;17.004;2023-11-21T07:48:38;1.20;;;0.55;;
39750;SDS011;37579;51.074;17.004;2023-11-21T07:51:05;1.70;;;0.38;;
39750;SDS011;37579;51.074;17.004;2023-11-21T07:53:32;1.60;;;0.50;;
39750;SDS011;37579;51.074;17.004;2023-11-21T07:55:58;1.55;;;0.35;;
39750;SDS011;37579;51.074;17.004;2023-11-21T07:58:28;1.00;;;0.50;;
39750;SDS011;37579;51.074;17.004;2023-11-21T08:00:53;1.02;;;0.40;;
39750;SDS011;37579;51.074;17.004;2023-11-21T08:03:19;1.15;;;0.50;;
39750;SDS011;37579;51.074;17.004;2023-11-21T08:05:46;1.33;;;0.40;;
39750;SDS011;37579;51.074;17.004;2023-11-21T08:08:12;2.00;;;0.80;;
39750;SDS011;37579;51.074;17.004;2023-11-21T08:10:38;1.63;;;0.68;;
39750;SDS011;37579;51.074;17.004;2023-11-21T08:13:04;3.17;;;0.98;;
39750;SDS011;37579;51.074;17.004;2023-11-21T08:15:31;2.00;;;0.82;;
39750;SDS011;37579;51.074;17.004;2023-11-21T08:17:57;2.53;;;1.13;;
39750;SDS011;37579;51.074;17.004;2023-11-21T08:20:26;2.40;;;1.20;;
39750;SDS011;37579;51.074;17.004;2023-11-21T08:22:52;2.35;;;1.30;;
39750;SDS011;37579;51.074;17.004;2023-11-21T08:25:18;2.25;;;1.08;;
39750;SDS011;37579;51.074;17.004;2023-11-21T08:27:46;3.25;;;1.33;;
39750;SDS011;37579;51.074;17.004;2023-11-21T08:30:11;3.08;;;1.27;;
39750;SDS011;37579;51.074;17.004;2023-11-21T08:32:39;3.13;;;0.98;;
39750;SDS011;37579;51.074;17.004;2023-11-21T08:35:07;2.95;;;1.20;;
39750;SDS011;37579;51.074;17.004;2023-11-21T08:37:33;2.30;;;0.98;;
39750;SDS011;37579;51.074;17.004;2023-11-21T08:40:02;2.50;;;1.33;;
39750;SDS011;37579;51.074;17.004;2023-11-21T08:42:41;2.13;;;1.20;;
39750;SDS011;37579;51.074;17.004;2023-11-21T08:45:08;1.92;;;1.10;;
39750;SDS011;37579;51.074;17.004;2023-11-21T08:47:34;1.77;;;0.95;;
39750;SDS011;37579;51.074;17.004;2023-11-21T08:50:01;2.33;;;0.88;;
39750;SDS011;37579;51.074;17.004;2023-11-21T08:52:28;3.30;;;1.20;;
39750;SDS011;37579;51.074;17.004;2023-11-21T08:54:53;3.58;;;1.38;;
39750;SDS011;37579;51.074;17.004;2023-11-21T08:57:24;2.33;;;1.02;;
39750;SDS011;37579;51.074;17.004;2023-11-21T08:59:50;1.95;;;0.85;;
39750;SDS011;37579;51.074;17.004;2023-11-21T09:02:23;6.38;;;1.02;;
39750;SDS011;37579;51.074;17.004;2023-11-21T09:04:51;2.92;;;1.17;;
39750;SDS011;37579;51.074;17.004;2023-11-21T09:07:18;1.85;;;0.98;;
39750;SDS011;37579;51.074;17.004;2023-11-21T09:09:46;2.90;;;1.00;;
39750;SDS011;37579;51.074;17.004;2023-11-21T09:12:12;3.05;;;1.00;;
39750;SDS011;37579;51.074;17.004;2023-11-21T09:14:38;1.73;;;0.80;;
39750;SDS011;37579;51.074;17.004;2023-11-21T09:17:05;2.50;;;1.08;;
39750;SDS011;37579;51.074;17.004;2023-11-21T09:19:39;2.00;;;0.88;;
39750;SDS011;37579;51.074;17.004;2023-11-21T09:22:05;1.98;;;0.88;;
39750;SDS011;37579;51.074;17.004;2023-11-21T09:24:31;3.08;;;1.20;;
39750;SDS011;37579;51.074;17.004;2023-11-21T09:26:58;5.20;;;1.50;;
39750;SDS011;37579;51.074;17.004;2023-11-21T09:29:25;2.75;;;1.10;;
39750;SDS011;37579;51.074;17.004;2023-11-21T09:31:51;3.03;;;1.20;;
39750;SDS011;37579;51.074;17.004;2023-11-21T09:34:17;3.53;;;1.05;;
39750;SDS011;37579;51.074;17.004;2023-11-21T09:36:46;2.63;;;1.20;;
39750;SDS011;37579;51.074;17.004;2023-11-21T09:39:13;3.22;;;1.10;;
39750;SDS011;37579;51.074;17.004;2023-11-21T09:41:43;3.08;;;1.33;;
39750;SDS011;37579;51.074;17.004;2023-11-21T09:44:14;2.45;;;1.20;;
39750;SDS011;37579;51.074;17.004;2023-11-21T09:47:00;3.33;;;1.20;;
39750;SDS011;37579;51.074;17.004;2023-11-21T09:49:28;4.05;;;1.20;;
39750;SDS011;37579;51.074;17.004;2023-11-21T09:51:59;3.40;;;1.23;;
39750;SDS011;37579;51.074;17.004;2023-11-21T09:54:28;3.17;;;1.10;;
39750;SDS011;37579;51.074;17.004;2023-11-21T09:56:57;2.70;;;1.40;;
39750;SDS011;37579;51.074;17.004;2023-11-21T09:59:24;4.63;;;1.20;;
39750;SDS011;37579;51.074;17.004;2023-11-21T10:01:57;10.25;;;1.60;;
39750;SDS011;37579;51.074;17.004;2023-11-21T10:04:26;2.78;;;1.50;;
39750;SDS011;37579;51.074;17.004;2023-11-21T10:06:53;3.17;;;1.15;;
39750;SDS011;37579;51.074;17.004;2023-11-21T10:09:19;3.72;;;1.35;;
39750;SDS011;37579;51.074;17.004;2023-11-21T10:11:46;4.63;;;1.50;;
39750;SDS011;37579;51.074;17.004;2023-11-21T10:14:14;3.15;;;1.00;;
39750;SDS011;37579;51.074;17.004;2023-11-21T10:16:44;4.38;;;1.40;;
39750;SDS011;37579;51.074;17.004;2023-11-21T10:19:12;2.33;;;1.30;;
39750;SDS011;37579;51.074;17.004;2023-11-21T10:21:41;3.30;;;1.45;;
39750;SDS011;37579;51.074;17.004;2023-11-21T10:24:07;6.75;;;1.10;;
39750;SDS011;37579;51.074;17.004;2023-11-21T10:26:33;3.22;;;1.10;;
39750;SDS011;37579;51.074;17.004;2023-11-21T10:29:00;3.50;;;1.23;;
39750;SDS011;37579;51.074;17.004;2023-11-21T10:31:29;4.30;;;1.42;;
39750;SDS011;37579;51.074;17.004;2023-11-21T10:34:14;3.95;;;1.17;;
39750;SDS011;37579;51.074;17.004;2023-11-21T10:36:41;4.28;;;1.40;;
39750;SDS011;37579;51.074;17.004;2023-11-21T10:39:07;3.45;;;1.20;;
39750;SDS011;37579;51.074;17.004;2023-11-21T10:41:55;3.75;;;1.48;;
39750;SDS011;37579;51.074;17.004;2023-11-21T10:44:21;3.17;;;1.25;;
39750;SDS011;37579;51.074;17.004;2023-11-21T10:46:52;2.70;;;1.27;;
39750;SDS011;37579;51.074;17.004;2023-11-21T10:49:25;3.35;;;1.40;;
39750;SDS011;37579;51.074;17.004;2023-11-21T10:51:52;3.50;;;1.10;;
39750;SDS011;37579;51.074;17.004;2023-11-21T10:54:22;2.50;;;0.90;;
39750;SDS011;37579;51.074;17.004;2023-11-21T10:56:51;3.33;;;1.20;;
39750;SDS011;37579;51.074;17.004;2023-11-21T10:59:22;1.75;;;1.05;;
39750;SDS011;37579;51.074;17.004;2023-11-21T11:01:50;2.65;;;1.20;;
39750;SDS011;37579;51.074;17.004;2023-11-21T11:04:20;3.75;;;1.40;;
39750;SDS011;37579;51.074;17.004;2023-11-21T11:07:01;2.88;;;1.27;;
39750;SDS011;37579;51.074;17.004;2023-11-21T11:09:28;3.53;;;1.35;;
39750;SDS011;37579;51.074;17.004;2023-11-21T11:11:58;2.85;;;1.30;;
39750;SDS011;37579;51.074;17.004;2023-11-21T11:14:24;2.38;;;1.20;;
39750;SDS011;37579;51.074;17.004;2023-11-21T11:16:53;2.30;;;1.20;;
39750;SDS011;37579;51.074;17.004;2023-11-21T11:19:21;2.05;;;1.23;;
39750;SDS011;37579;51.074;17.004;2023-11-21T11:30:27;3.17;;;1.13;;
39750;SDS011;37579;51.074;17.004;2023-11-21T11:33:11;3.72;;;1.30;;
39750;SDS011;37579;51.074;17.004;2023-11-21T11:36:04;6.20;;;1.30;;
39750;SDS011;37579;51.074;17.004;2023-11-21T11:38:36;2.55;;;1.27;;
39750;SDS011;37579;51.074;17.004;2023-11-21T11:41:03;4.55;;;1.10;;
39750;SDS011;37579;51.074;17.004;2023-11-21T11:43:30;3.63;;;1.20;;
39750;SDS011;37579;51.074;17.004;2023-11-21T11:46:10;2.45;;;1.40;;
39750;SDS011;37579;51.074;17.004;2023-11-21T11:48:40;4.07;;;1.40;;
39750;SDS011;37579;51.074;17.004;2023-11-21T11:53:43;2.63;;;1.30;;
39750;SDS011;37579;51.074;17.004;2023-11-21T11:56:30;2.55;;;1.20;;
39750;SDS011;37579;51.074;17.004;2023-11-21T11:58:59;2.80;;;1.10;;
39750;SDS011;37579;51.074;17.004;2023-11-21T12:01:34;2.83;;;1.20;;
39750;SDS011;37579;51.074;17.004;2023-11-21T12:06:48;3.88;;;1.42;;
39750;SDS011;37579;51.074;17.004;2023-11-21T12:09:18;4.50;;;1.55;;
39750;SDS011;37579;51.074;17.004;2023-11-21T12:11:46;5.07;;;1.35;;
39750;SDS011;37579;51.074;17.004;2023-11-21T12:14:14;3.42;;;1.45;;
39750;SDS011;37579;51.074;17.004;2023-11-21T12:16:40;4.65;;;1.73;;
39750;SDS011;37579;51.074;17.004;2023-11-21T12:19:08;3.75;;;1.88;;
39750;SDS011;37579;51.074;17.004;2023-11-21T12:21:36;2.88;;;1.77;;
39750;SDS011;37579;51.074;17.004;2023-11-21T12:24:02;3.53;;;1.92;;
39750;SDS011;37579;51.074;17.004;2023-11-21T12:26:28;3.88;;;1.90;;
39750;SDS011;37579;51.074;17.004;2023-11-21T12:28:54;4.68;;;2.50;;
39750;SDS011;37579;51.074;17.004;2023-11-21T12:31:21;10.75;;;4.78;;
39750;SDS011;37579;51.074;17.004;2023-11-21T12:33:47;17.92;;;7.15;;
39750;SDS011;37579;51.074;17.004;2023-11-21T12:36:13;14.98;;;6.78;;
39750;SDS011;37579;51.074;17.004;2023-11-21T12:38:39;16.88;;;7.20;;
39750;SDS011;37579;51.074;17.004;2023-11-21T12:41:05;21.55;;;8.57;;
39750;SDS011;37579;51.074;17.004;2023-11-21T12:43:35;16.98;;;8.77;;
39750;SDS011;37579;51.074;17.004;2023-11-21T12:46:08;23.73;;;10.90;;
39750;SDS011;37579;51.074;17.004;2023-11-21T12:48:37;21.05;;;11.25;;
39750;SDS011;37579;51.074;17.004;2023-11-21T12:51:10;24.20;;;10.07;;
39750;SDS011;37579;51.074;17.004;2023-11-21T12:53:40;21.70;;;11.02;;
39750;SDS011;37579;51.074;17.004;2023-11-21T12:58:35;23.45;;;11.48;;
39750;SDS011;37579;51.074;17.004;2023-11-21T13:01:04;24.20;;;11.20;;
39750;SDS011;37579;51.074;17.004;2023-11-21T13:03:31;26.95;;;11.15;;
39750;SDS011;37579;51.074;17.004;2023-11-21T13:05:59;25.92;;;11.77;;
39750;SDS011;37579;51.074;17.004;2023-11-21T13:08:26;23.50;;;11.80;;
39750;SDS011;37579;51.074;17.004;2023-11-21T13:10:54;25.33;;;11.38;;
39750;SDS011;37579;51.074;17.004;2023-11-21T13:13:21;34.72;;;12.63;;
39750;SDS011;37579;51.074;17.004;2023-11-21T13:15:53;25.60;;;11.07;;
39750;SDS011;37579;51.074;17.004;2023-11-21T13:20:48;23.20;;;12.25;;
39750;SDS011;37579;51.074;17.004;2023-11-21T13:23:15;29.48;;;12.40;;
39750;SDS011;37579;51.074;17.004;2023-11-21T13:25:44;27.10;;;12.90;;
39750;SDS011;37579;51.074;17.004;2023-11-21T13:28:12;22.75;;;11.07;;
39750;SDS011;37579;51.074;17.004;2023-11-21T13:30:38;23.70;;;11.20;;
39750;SDS011;37579;51.074;17.004;2023-11-21T13:33:05;23.27;;;10.60;;
39750;SDS011;37579;51.074;17.004;2023-11-21T13:35:33;21.52;;;11.18;;
39750;SDS011;37579;51.074;17.004;2023-11-21T13:38:13;24.83;;;11.27;;
39750;SDS011;37579;51.074;17.004;2023-11-21T13:40:42;23.42;;;11.07;;
39750;SDS011;37579;51.074;17.004;2023-11-21T13:43:18;24.92;;;11.63;;
39750;SDS011;37579;51.074;17.004;2023-11-21T13:45:45;23.08;;;11.07;;
39750;SDS011;37579;51.074;17.004;2023-11-21T13:48:12;21.90;;;11.98;;
39750;SDS011;37579;51.074;17.004;2023-11-21T13:50:39;26.80;;;12.48;;
39750;SDS011;37579;51.074;17.004;2023-11-21T13:53:13;28.58;;;13.15;;
39750;SDS011;37579;51.074;17.004;2023-11-21T13:55:52;29.35;;;13.02;;
39750;SDS011;37579;51.074;17.004;2023-11-21T13:58:23;23.80;;;11.95;;
39750;SDS011;37579;51.074;17.004;2023-11-21T14:01:07;23.95;;;12.25;;
39750;SDS011;37579;51.074;17.004;2023-11-21T14:04:03;25.15;;;11.57;;
39750;SDS011;37579;51.074;17.004;2023-11-21T14:06:42;22.55;;;11.55;;
39750;SDS011;37579;51.074;17.004;2023-11-21T14:09:16;22.52;;;10.93;;
39750;SDS011;37579;51.074;17.004;2023-11-21T14:14:18;16.80;;;10.05;;
39750;SDS011;37579;51.074;17.004;2023-11-21T14:16:45;21.33;;;10.60;;
39750;SDS011;37579;51.074;17.004;2023-11-21T14:19:11;17.25;;;10.25;;
39750;SDS011;37579;51.074;17.004;2023-11-21T14:21:45;23.38;;;10.68;;
39750;SDS011;37579;51.074;17.004;2023-11-21T14:24:13;6.38;;;4.45;;
39750;SDS011;37579;51.074;17.004;2023-11-21T14:26:42;6.57;;;3.42;;
39750;SDS011;37579;51.074;17.004;2023-11-21T14:29:10;6.03;;;3.38;;
39750;SDS011;37579;51.074;17.004;2023-11-21T14:31:39;6.82;;;3.40;;
39750;SDS011;37579;51.074;17.004;2023-11-21T14:34:06;5.78;;;3.25;;
39750;SDS011;37579;51.074;17.004;2023-11-21T14:36:35;4.70;;;2.90;;
39750;SDS011;37579;51.074;17.004;2023-11-21T14:39:05;6.13;;;3.08;;
39750;SDS011;37579;51.074;17.004;2023-11-21T14:41:41;6.60;;;3.05;;
39750;SDS011;37579;51.074;17.004;2023-11-21T14:44:08;5.47;;;2.85;;
39750;SDS011;37579;51.074;17.004;2023-11-21T14:46:37;5.10;;;3.15;;
39750;SDS011;37579;51.074;17.004;2023-11-21T14:49:04;5.30;;;2.90;;
39750;SDS011;37579;51.074;17.004;2023-11-21T14:51:47;6.03;;;2.22;;
39750;SDS011;37579;51.074;17.004;2023-11-21T14:54:33;3.30;;;2.30;;
39750;SDS011;37579;51.074;17.004;2023-11-21T14:57:04;3.92;;;2.30;;